sensor_id;sensor_type;location;lat;lon;timestamp;pressure;altitude;pressure_sealevel;temperature;humidity
43503;BME280;29098;48.184;16.298;2023-06-10T00:01:41;98958.59;;;15.65;100.00
43503;BME280;29098;48.184;16.298;2023-06-10T00:04:06;98996.31;;;15.73;100.00
43503;BME280;29098;48.184;16.298;2023-06-10T00:06:32;99018.22;;;15.87;100.00
43503;BME280;29098;48.184;16.298;2023-06-10T00:09:03;98997.13;;;15.74;100.00
43503;BME280;29098;48.184;16.298;2023-06-10T00:11:35;98983.03;;;15.73;100.00
43503;BME280;29098;48.184;16.298;2023-06-10T00:14:01;98986.00;;;15.65;100.00
43503;BME280;29098;48.184;16.298;2023-06-10T00:16:26;99018.69;;;15.66;100.00
43503;BME280;29098;48.184;16.298;2023-06-10T00:18:52;99017.94;;;15.77;100.00
43503;BME280;29098;48.184;16.298;2023-06-10T00:21:17;99021.84;;;15.74;100.00
43503;BME280;29098;48.184;16.298;2023-06-10T00:23:44;98988.72;;;15.77;100.00
43503;BME280;29098;48.184;16.298;2023-06-10T00:26:09;99007.38;;;15.70;100.00
43503;BME280;29098;48.184;16.298;2023-06-10T00:28:35;98968.44;;;15.64;100.00
43503;BME280;29098;48.184;16.298;2023-06-10T00:31:01;98991.50;;;15.82;100.00
43503;BME280;29098;48.184;16.298;2023-06-10T00:33:27;99014.81;;;15.80;100.00
43503;BME280;29098;48.184;16.298;2023-06-10T00:35:53;99012.06;;;15.75;100.00
43503;BME280;29098;48.184;16.298;2023-06-10T00:38:18;99004.19;;;15.80;100.00
43503;BME280;29098;48.184;16.298;2023-06-10T00:40:44;99021.69;;;15.69;100.00
43503;BME280;29098;48.184;16.298;2023-06-10T00:43:09;99030.56;;;15.82;100.00
43503;BME280;29098;48.184;16.298;2023-06-10T00:45:35;99032.47;;;15.74;100.00
43503;BME280;29098;48.184;16.298;2023-06-10T00:48:01;99006.28;;;15.59;100.00
43503;BME280;29098;48.184;16.298;2023-06-10T00:50:27;99011.38;;;15.61;100.00
43503;BME280;29098;48.184;16.298;2023-06-10T00:52:54;99008.34;;;15.76;100.00
43503;BME280;29098;48.184;16.298;2023-06-10T00:55:20;98994.34;;;15.69;100.00
43503;BME280;29098;48.184;16.298;2023-06-10T00:57:46;98986.31;;;15.57;100.00
43503;BME280;29098;48.184;16.298;2023-06-10T01:00:14;99029.97;;;15.80;100.00
43503;BME280;29098;48.184;16.298;2023-06-10T01:02:41;99025.97;;;15.70;100.00
43503;BME280;29098;48.184;16.298;2023-06-10T01:05:07;99038.47;;;15.70;100.00
43503;BME280;29098;48.184;16.298;2023-06-10T01:07:39;99029.47;;;15.71;100.00
43503;BME280;29098;48.184;16.298;2023-06-10T01:10:20;99029.75;;;15.63;100.00
43503;BME280;29098;48.184;16.298;2023-06-10T01:13:02;99053.69;;;15.63;100.00
43503;BME280;29098;48.184;16.298;2023-06-10T01:15:31;99003.94;;;15.32;100.00
43503;BME280;29098;48.184;16.298;2023-06-10T01:18:01;99017.38;;;15.56;100.00
43503;BME280;29098;48.184;16.298;2023-06-10T01:20:28;99020.31;;;15.48;100.00
43503;BME280;29098;48.184;16.298;2023-06-10T01:22:57;99028.59;;;15.40;100.00
43503;BME280;29098;48.184;16.298;2023-06-10T01:25:23;99025.56;;;15.55;100.00
43503;BME280;29098;48.184;16.298;2023-06-10T01:27:54;99032.34;;;15.51;100.00
43503;BME280;29098;48.184;16.298;2023-06-10T01:30:24;99030.28;;;15.53;100.00
43503;BME280;29098;48.184;16.298;2023-06-10T01:32:55;99051.75;;;15.70;100.00
43503;BME280;29098;48.184;16.298;2023-06-10T01:35:25;99033.53;;;15.55;100.00
43503;BME280;29098;48.184;16.298;2023-06-10T01:37:53;99017.94;;;15.58;100.00
43503;BME280;29098;48.184;16.298;2023-06-10T01:40:20;99024.97;;;15.71;100.00
43503;BME280;29098;48.184;16.298;2023-06-10T01:42:46;99043.06;;;15.63;100.00
43503;BME280;29098;48.184;16.298;2023-06-10T01:45:11;99040.56;;;15.68;100.00
43503;BME280;29098;48.184;16.298;2023-06-10T01:47:37;99054.31;;;15.77;100.00
43503;BME280;29098;48.184;16.298;2023-06-10T01:50:03;99032.72;;;15.54;100.00
43503;BME280;29098;48.184;16.298;2023-06-10T01:52:28;99035.44;;;15.66;100.00
43503;BME280;29098;48.184;16.298;2023-06-10T01:54:54;99018.84;;;15.71;100.00
43503;BME280;29098;48.184;16.298;2023-06-10T01:57:19;99050.28;;;15.93;100.00
43503;BME280;29098;48.184;16.298;2023-06-10T01:59:44;99006.53;;;15.58;100.00
43503;BME280;29098;48.184;16.298;2023-06-10T02:02:11;99008.41;;;15.69;100.00
43503;BME280;29098;48.184;16.298;2023-06-10T02:04:36;99044.16;;;15.73;100.00
43503;BME280;29098;48.184;16.298;2023-06-10T02:07:02;99044.44;;;15.84;100.00
43503;BME280;29098;48.184;16.298;2023-06-10T02:09:30;99045.38;;;15.89;100.00
43503;BME280;29098;48.184;16.298;2023-06-10T02:11:55;99031.66;;;15.74;100.00
43503;BME280;29098;48.184;16.298;2023-06-10T02:14:21;99040.00;;;15.78;100.00
43503;BME280;29098;48.184;16.298;2023-06-10T02:16:46;99042.13;;;15.87;100.00
43503;BME280;29098;48.184;16.298;2023-06-10T02:19:13;99049.84;;;15.77;100.00
43503;BME280;29098;48.184;16.298;2023-06-10T02:21:39;99062.75;;;15.92;100.00
43503;BME280;29098;48.184;16.298;2023-06-10T02:24:05;99055.00;;;15.91;100.00
43503;BME280;29098;48.184;16.298;2023-06-10T02:26:30;99059.13;;;15.86;100.00
43503;BME280;29098;48.184;16.298;2023-06-10T02:28:57;99044.63;;;15.82;100.00
43503;BME280;29098;48.184;16.298;2023-06-10T02:31:22;99051.31;;;15.92;100.00
43503;BME280;29098;48.184;16.298;2023-06-10T02:33:50;99041.41;;;15.80;100.00
43503;BME280;29098;48.184;16.298;2023-06-10T02:36:15;99051.16;;;15.86;100.00
43503;BME280;29098;48.184;16.298;2023-06-10T02:38:41;99014.28;;;15.90;100.00
43503;BME280;29098;48.184;16.298;2023-06-10T02:41:07;99017.56;;;15.92;100.00
43503;BME280;29098;48.184;16.298;2023-06-10T02:43:32;99005.59;;;15.83;100.00
43503;BME280;29098;48.184;16.298;2023-06-10T02:45:58;99011.94;;;15.82;100.00
43503;BME280;29098;48.184;16.298;2023-06-10T02:48:24;99008.19;;;15.71;100.00
43503;BME280;29098;48.184;16.298;2023-06-10T02:50:50;99023.75;;;15.86;100.00
43503;BME280;29098;48.184;16.298;2023-06-10T02:53:15;99051.44;;;15.97;100.00
43503;BME280;29098;48.184;16.298;2023-06-10T02:55:41;99012.06;;;15.75;100.00
43503;BME280;29098;48.184;16.298;2023-06-10T02:58:06;99066.22;;;15.93;100.00
43503;BME280;29098;48.184;16.298;2023-06-10T03:00:32;99049.47;;;15.92;100.00
43503;BME280;29098;48.184;16.298;2023-06-10T03:02:58;99061.31;;;15.89;100.00
43503;BME280;29098;48.184;16.298;2023-06-10T03:05:25;99049.06;;;15.88;100.00
43503;BME280;29098;48.184;16.298;2023-06-10T03:07:51;99054.72;;;15.99;100.00
43503;BME280;29098;48.184;16.298;2023-06-10T03:10:16;99035.78;;;15.88;100.00
43503;BME280;29098;48.184;16.298;2023-06-10T03:12:42;99062.69;;;15.99;100.00
43503;BME280;29098;48.184;16.298;2023-06-10T03:15:07;99051.59;;;15.83;100.00
43503;BME280;29098;48.184;16.298;2023-06-10T03:17:33;99047.91;;;15.84;100.00
43503;BME280;29098;48.184;16.298;2023-06-10T03:19:58;99041.63;;;15.97;100.00
43503;BME280;29098;48.184;16.298;2023-06-10T03:22:24;99068.72;;;16.06;100.00
43503;BME280;29098;48.184;16.298;2023-06-10T03:24:49;99037.63;;;15.88;100.00
43503;BME280;29098;48.184;16.298;2023-06-10T03:27:15;99070.56;;;16.06;100.00
43503;BME280;29098;48.184;16.298;2023-06-10T03:29:41;99042.09;;;15.94;100.00
43503;BME280;29098;48.184;16.298;2023-06-10T03:32:07;99039.56;;;15.99;100.00
43503;BME280;29098;48.184;16.298;2023-06-10T03:34:33;99067.22;;;16.10;100.00
43503;BME280;29098;48.184;16.298;2023-06-10T03:36:58;99042.00;;;16.01;100.00
43503;BME280;29098;48.184;16.298;2023-06-10T03:39:25;99047.56;;;16.11;100.00
43503;BME280;29098;48.184;16.298;2023-06-10T03:41:54;99048.34;;;16.00;100.00
43503;BME280;29098;48.184;16.298;2023-06-10T03:44:19;99047.69;;;16.05;100.00
43503;BME280;29098;48.184;16.298;2023-06-10T03:46:45;99052.28;;;15.97;100.00
43503;BME280;29098;48.184;16.298;2023-06-10T03:49:10;99037.72;;;16.00;100.00
43503;BME280;29098;48.184;16.298;2023-06-10T03:51:36;99037.34;;;15.96;100.00
43503;BME280;29098;48.184;16.298;2023-06-10T03:54:02;99071.75;;;16.10;100.00
43503;BME280;29098;48.184;16.298;2023-06-10T03:56:28;99053.22;;;16.03;100.00
43503;BME280;29098;48.184;16.298;2023-06-10T03:58:54;99043.16;;;16.05;100.00
43503;BME280;29098;48.184;16.298;2023-06-10T04:01:20;99051.50;;;16.09;100.00
43503;BME280;29098;48.184;16.298;2023-06-10T04:03:46;99033.03;;;16.14;100.00
43503;BME280;29098;48.184;16.298;2023-06-10T04:06:13;99053.94;;;16.10;100.00
43503;BME280;29098;48.184;16.298;2023-06-10T04:08:39;99078.97;;;16.21;100.00
43503;BME280;29098;48.184;16.298;2023-06-10T04:11:04;99079.78;;;16.22;100.00
43503;BME280;29098;48.184;16.298;2023-06-10T04:13:30;99080.72;;;16.27;100.00
43503;BME280;29098;48.184;16.298;2023-06-10T04:15:55;99065.44;;;16.23;100.00
43503;BME280;29098;48.184;16.298;2023-06-10T04:18:20;99069.41;;;16.32;100.00
43503;BME280;29098;48.184;16.298;2023-06-10T04:20:47;99075.06;;;16.36;100.00
43503;BME280;29098;48.184;16.298;2023-06-10T04:23:12;99085.50;;;16.37;100.00
43503;BME280;29098;48.184;16.298;2023-06-10T04:25:38;99085.34;;;16.32;100.00
43503;BME280;29098;48.184;16.298;2023-06-10T04:28:03;99066.59;;;16.27;100.00
43503;BME280;29098;48.184;16.298;2023-06-10T04:30:29;99046.94;;;16.28;100.00
43503;BME280;29098;48.184;16.298;2023-06-10T04:32:56;99054.84;;;16.35;100.00
43503;BME280;29098;48.184;16.298;2023-06-10T04:35:22;99079.25;;;16.43;100.00
43503;BME280;29098;48.184;16.298;2023-06-10T04:37:47;99073.81;;;16.38;100.00
43503;BME280;29098;48.184;16.298;2023-06-10T04:40:12;99079.59;;;16.47;100.00
43503;BME280;29098;48.184;16.298;2023-06-10T04:42:38;99041.06;;;16.38;100.00
43503;BME280;29098;48.184;16.298;2023-06-10T04:45:04;99083.81;;;16.55;100.00
43503;BME280;29098;48.184;16.298;2023-06-10T04:47:30;99055.47;;;16.61;100.00
43503;BME280;29098;48.184;16.298;2023-06-10T04:49:59;99046.91;;;16.59;100.00
43503;BME280;29098;48.184;16.298;2023-06-10T04:52:24;99040.31;;;16.61;100.00
43503;BME280;29098;48.184;16.298;2023-06-10T04:54:50;99088.13;;;16.68;100.00
43503;BME280;29098;48.184;16.298;2023-06-10T04:57:15;99033.97;;;16.62;100.00
43503;BME280;29098;48.184;16.298;2023-06-10T04:59:40;99072.84;;;16.75;100.00
43503;BME280;29098;48.184;16.298;2023-06-10T05:02:06;99048.31;;;16.73;100.00
43503;BME280;29098;48.184;16.298;2023-06-10T05:04:32;99057.09;;;16.74;100.00
43503;BME280;29098;48.184;16.298;2023-06-10T05:06:57;99072.31;;;16.85;100.00
43503;BME280;29098;48.184;16.298;2023-06-10T05:09:23;99075.53;;;16.87;100.00
43503;BME280;29098;48.184;16.298;2023-06-10T05:11:48;99054.00;;;16.77;100.00
43503;BME280;29098;48.184;16.298;2023-06-10T05:14:14;99032.38;;;16.85;100.00
43503;BME280;29098;48.184;16.298;2023-06-10T05:16:41;99040.44;;;16.90;100.00
43503;BME280;29098;48.184;16.298;2023-06-10T05:19:07;99071.66;;;17.02;100.00
43503;BME280;29098;48.184;16.298;2023-06-10T05:21:33;99080.75;;;16.94;100.00
43503;BME280;29098;48.184;16.298;2023-06-10T05:23:58;99049.38;;;16.84;100.00
43503;BME280;29098;48.184;16.298;2023-06-10T05:26:24;99077.13;;;16.76;100.00
43503;BME280;29098;48.184;16.298;2023-06-10T05:28:50;99056.31;;;16.73;100.00
43503;BME280;29098;48.184;16.298;2023-06-10T05:31:16;99068.56;;;16.74;100.00
43503;BME280;29098;48.184;16.298;2023-06-10T05:33:41;99086.06;;;16.82;100.00
43503;BME280;29098;48.184;16.298;2023-06-10T05:36:06;99055.97;;;16.81;100.00
43503;BME280;29098;48.184;16.298;2023-06-10T05:38:32;99076.91;;;16.78;100.00
43503;BME280;29098;48.184;16.298;2023-06-10T05:40:57;99091.50;;;16.87;100.00
43503;BME280;29098;48.184;16.298;2023-06-10T05:43:24;99075.88;;;16.91;100.00
43503;BME280;29098;48.184;16.298;2023-06-10T05:45:49;99052.97;;;16.90;100.00
43503;BME280;29098;48.184;16.298;2023-06-10T05:48:15;99091.63;;;16.92;100.00
43503;BME280;29098;48.184;16.298;2023-06-10T05:50:40;99079.94;;;16.93;100.00
43503;BME280;29098;48.184;16.298;2023-06-10T05:53:08;99087.81;;;16.88;100.00
43503;BME280;29098;48.184;16.298;2023-06-10T05:55:43;99109.75;;;17.02;100.00
43503;BME280;29098;48.184;16.298;2023-06-10T05:58:09;99086.31;;;16.92;100.00
43503;BME280;29098;48.184;16.298;2023-06-10T06:00:34;99079.47;;;16.96;100.00
43503;BME280;29098;48.184;16.298;2023-06-10T06:03:00;99062.09;;;16.94;100.00
43503;BME280;29098;48.184;16.298;2023-06-10T06:05:25;99066.63;;;16.93;100.00
43503;BME280;29098;48.184;16.298;2023-06-10T06:07:51;99079.41;;;17.03;100.00
43503;BME280;29098;48.184;16.298;2023-06-10T06:10:17;99051.00;;;16.85;100.00
43503;BME280;29098;48.184;16.298;2023-06-10T06:12:43;99068.81;;;16.96;100.00
43503;BME280;29098;48.184;16.298;2023-06-10T06:15:10;99082.28;;;17.02;100.00
43503;BME280;29098;48.184;16.298;2023-06-10T06:17:35;99051.00;;;16.85;100.00
43503;BME280;29098;48.184;16.298;2023-06-10T06:20:02;99089.06;;;16.97;100.00
43503;BME280;29098;48.184;16.298;2023-06-10T06:22:27;99112.81;;;16.99;100.00
43503;BME280;29098;48.184;16.298;2023-06-10T06:24:53;99096.06;;;16.98;100.00
43503;BME280;29098;48.184;16.298;2023-06-10T06:27:18;99121.75;;;17.05;100.00
43503;BME280;29098;48.184;16.298;2023-06-10T06:29:44;99096.06;;;16.98;100.00
43503;BME280;29098;48.184;16.298;2023-06-10T06:32:09;99081.38;;;17.08;100.00
43503;BME280;29098;48.184;16.298;2023-06-10T06:34:34;99080.78;;;17.06;100.00
43503;BME280;29098;48.184;16.298;2023-06-10T06:37:00;99103.47;;;17.08;100.00
43503;BME280;29098;48.184;16.298;2023-06-10T06:39:25;99116.34;;;17.11;100.00
43503;BME280;29098;48.184;16.298;2023-06-10T06:41:51;99056.34;;;16.97;100.00
43503;BME280;29098;48.184;16.298;2023-06-10T06:44:16;99101.75;;;17.02;100.00
43503;BME280;29098;48.184;16.298;2023-06-10T06:46:41;99088.31;;;17.09;100.00
43503;BME280;29098;48.184;16.298;2023-06-10T06:49:07;99102.56;;;17.15;100.00
43503;BME280;29098;48.184;16.298;2023-06-10T06:51:32;99061.09;;;16.95;100.00
43503;BME280;29098;48.184;16.298;2023-06-10T06:53:58;99119.38;;;17.15;100.00
43503;BME280;29098;48.184;16.298;2023-06-10T06:56:24;99089.03;;;17.16;100.00
43503;BME280;29098;48.184;16.298;2023-06-10T06:58:50;99109.41;;;17.22;100.00
43503;BME280;29098;48.184;16.298;2023-06-10T07:01:15;99101.75;;;17.14;100.00
43503;BME280;29098;48.184;16.298;2023-06-10T07:03:41;99100.47;;;17.17;100.00
43503;BME280;29098;48.184;16.298;2023-06-10T07:06:06;99109.41;;;17.22;100.00
43503;BME280;29098;48.184;16.298;2023-06-10T07:08:32;99097.22;;;17.27;100.00
43503;BME280;29098;48.184;16.298;2023-06-10T07:10:57;99099.91;;;17.27;100.00
43503;BME280;29098;48.184;16.298;2023-06-10T07:13:23;99100.94;;;17.25;100.00
43503;BME280;29098;48.184;16.298;2023-06-10T07:15:48;99112.88;;;17.35;100.00
43503;BME280;29098;48.184;16.298;2023-06-10T07:18:15;99113.13;;;17.45;100.00
43503;BME280;29098;48.184;16.298;2023-06-10T07:20:41;99130.72;;;17.46;100.00
43503;BME280;29098;48.184;16.298;2023-06-10T07:23:06;99099.19;;;17.43;100.00
43503;BME280;29098;48.184;16.298;2023-06-10T07:25:32;99107.78;;;17.45;100.00
43503;BME280;29098;48.184;16.298;2023-06-10T07:27:57;99090.16;;;17.44;100.00
43503;BME280;29098;48.184;16.298;2023-06-10T07:30:25;99106.03;;;17.51;100.00
43503;BME280;29098;48.184;16.298;2023-06-10T07:32:51;99124.78;;;17.68;100.00
43503;BME280;29098;48.184;16.298;2023-06-10T07:35:16;99101.00;;;17.78;100.00
43503;BME280;29098;48.184;16.298;2023-06-10T07:37:42;99115.50;;;17.71;100.00
43503;BME280;29098;48.184;16.298;2023-06-10T07:40:08;99132.06;;;17.85;100.00
43503;BME280;29098;48.184;16.298;2023-06-10T07:42:35;99115.34;;;17.89;100.00
43503;BME280;29098;48.184;16.298;2023-06-10T07:45:01;99100.06;;;17.85;100.00
43503;BME280;29098;48.184;16.298;2023-06-10T07:47:26;99096.22;;;17.92;100.00
43503;BME280;29098;48.184;16.298;2023-06-10T07:49:52;99118.56;;;18.03;100.00
43503;BME280;29098;48.184;16.298;2023-06-10T07:52:17;99096.34;;;17.86;100.00
43503;BME280;29098;48.184;16.298;2023-06-10T07:54:43;99129.59;;;18.07;100.00
43503;BME280;29098;48.184;16.298;2023-06-10T07:57:08;99118.13;;;18.06;100.00
43503;BME280;29098;48.184;16.298;2023-06-10T07:59:33;99106.09;;;17.92;100.00
43503;BME280;29098;48.184;16.298;2023-06-10T08:01:59;99135.38;;;18.04;100.00
43503;BME280;29098;48.184;16.298;2023-06-10T08:04:24;99092.75;;;17.92;100.00
43503;BME280;29098;48.184;16.298;2023-06-10T08:06:50;99124.94;;;18.02;100.00
43503;BME280;29098;48.184;16.298;2023-06-10T08:09:16;99132.28;;;17.95;100.00
43503;BME280;29098;48.184;16.298;2023-06-10T08:11:41;99144.31;;;17.98;100.00
43503;BME280;29098;48.184;16.298;2023-06-10T08:14:07;99110.47;;;17.86;100.00
43503;BME280;29098;48.184;16.298;2023-06-10T08:16:32;99139.47;;;18.06;100.00
43503;BME280;29098;48.184;16.298;2023-06-10T08:18:57;99137.03;;;18.05;100.00
43503;BME280;29098;48.184;16.298;2023-06-10T08:21:23;99105.59;;;18.07;100.00
43503;BME280;29098;48.184;16.298;2023-06-10T08:23:52;99108.25;;;18.07;100.00
43503;BME280;29098;48.184;16.298;2023-06-10T08:26:18;99129.78;;;18.17;100.00
43503;BME280;29098;48.184;16.298;2023-06-10T08:28:43;99122.50;;;18.13;100.00
43503;BME280;29098;48.184;16.298;2023-06-10T08:31:09;99132.34;;;18.24;100.00
43503;BME280;29098;48.184;16.298;2023-06-10T08:33:34;99129.28;;;18.32;100.00
43503;BME280;29098;48.184;16.298;2023-06-10T08:35:59;99102.84;;;18.31;100.00
43503;BME280;29098;48.184;16.298;2023-06-10T08:38:25;99114.91;;;18.33;100.00
43503;BME280;29098;48.184;16.298;2023-06-10T08:40:55;99126.13;;;18.35;100.00
43503;BME280;29098;48.184;16.298;2023-06-10T08:46:00;99121.63;;;18.36;100.00
43503;BME280;29098;48.184;16.298;2023-06-10T08:48:31;99129.66;;;18.53;100.00
43503;BME280;29098;48.184;16.298;2023-06-10T08:51:00;99124.72;;;18.45;100.00
43503;BME280;29098;48.184;16.298;2023-06-10T08:53:30;99149.47;;;18.57;100.00
43503;BME280;29098;48.184;16.298;2023-06-10T08:55:58;99147.16;;;18.61;100.00
43503;BME280;29098;48.184;16.298;2023-06-10T08:58:27;99139.97;;;18.61;100.00
43503;BME280;29098;48.184;16.298;2023-06-10T09:00:53;99134.13;;;18.65;100.00
43503;BME280;29098;48.184;16.298;2023-06-10T09:03:19;99130.28;;;18.72;100.00
43503;BME280;29098;48.184;16.298;2023-06-10T09:05:46;99139.78;;;18.68;100.00
43503;BME280;29098;48.184;16.298;2023-06-10T09:08:11;99132.50;;;18.64;100.00
43503;BME280;29098;48.184;16.298;2023-06-10T09:10:37;99105.66;;;18.70;100.00
43503;BME280;29098;48.184;16.298;2023-06-10T09:13:03;99144.34;;;18.85;100.00
43503;BME280;29098;48.184;16.298;2023-06-10T09:15:28;99124.28;;;18.82;100.00
43503;BME280;29098;48.184;16.298;2023-06-10T09:17:54;99130.25;;;18.89;100.00
43503;BME280;29098;48.184;16.298;2023-06-10T09:20:20;99121.69;;;18.87;100.00
43503;BME280;29098;48.184;16.298;2023-06-10T09:22:45;99122.00;;;18.91;100.00
43503;BME280;29098;48.184;16.298;2023-06-10T09:25:12;99127.19;;;18.98;100.00
43503;BME280;29098;48.184;16.298;2023-06-10T09:27:50;99125.25;;;18.93;100.00
43503;BME280;29098;48.184;16.298;2023-06-10T09:30:34;99148.09;;;19.01;100.00
43503;BME280;29098;48.184;16.298;2023-06-10T09:33:02;99141.94;;;19.00;100.00
43503;BME280;29098;48.184;16.298;2023-06-10T09:35:29;99123.50;;;18.99;100.00
43503;BME280;29098;48.184;16.298;2023-06-10T09:37:59;99151.81;;;19.00;100.00
43503;BME280;29098;48.184;16.298;2023-06-10T09:40:25;99136.19;;;18.92;100.00
43503;BME280;29098;48.184;16.298;2023-06-10T09:42:58;99138.28;;;18.89;100.00
43503;BME280;29098;48.184;16.298;2023-06-10T09:45:29;99133.34;;;18.98;100.00
43503;BME280;29098;48.184;16.298;2023-06-10T09:47:56;99148.28;;;19.11;100.00
43503;BME280;29098;48.184;16.298;2023-06-10T09:50:22;99147.97;;;19.25;100.00
43503;BME280;29098;48.184;16.298;2023-06-10T09:52:50;99121.97;;;19.20;100.00
43503;BME280;29098;48.184;16.298;2023-06-10T09:55:16;99141.13;;;19.34;100.00
43503;BME280;29098;48.184;16.298;2023-06-10T09:57:42;99126.38;;;19.49;100.00
43503;BME280;29098;48.184;16.298;2023-06-10T10:00:10;99130.66;;;19.50;100.00
43503;BME280;29098;48.184;16.298;2023-06-10T10:02:49;99093.00;;;19.51;100.00
43503;BME280;29098;48.184;16.298;2023-06-10T10:05:22;99128.16;;;19.60;100.00
43503;BME280;29098;48.184;16.298;2023-06-10T10:07:48;99131.44;;;19.67;100.00
43503;BME280;29098;48.184;16.298;2023-06-10T10:10:15;99089.66;;;19.61;100.00
43503;BME280;29098;48.184;16.298;2023-06-10T10:12:41;99103.59;;;19.63;100.00
43503;BME280;29098;48.184;16.298;2023-06-10T10:15:08;99106.34;;;19.68;100.00
43503;BME280;29098;48.184;16.298;2023-06-10T10:17:36;99114.47;;;19.79;100.00
43503;BME280;29098;48.184;16.298;2023-06-10T10:20:04;99124.19;;;19.85;100.00
43503;BME280;29098;48.184;16.298;2023-06-10T10:22:41;99083.31;;;19.90;100.00
43503;BME280;29098;48.184;16.298;2023-06-10T10:25:11;99087.94;;;19.94;100.00
43503;BME280;29098;48.184;16.298;2023-06-10T10:28:12;99093.47;;;20.10;100.00
43503;BME280;29098;48.184;16.298;2023-06-10T10:30:45;99086.63;;;19.97;100.00
43503;BME280;29098;48.184;16.298;2023-06-10T10:36:19;99083.75;;;20.04;100.00
43503;BME280;29098;48.184;16.298;2023-06-10T10:38:45;99085.56;;;19.98;100.00
43503;BME280;29098;48.184;16.298;2023-06-10T10:41:13;99108.97;;;20.08;100.00
43503;BME280;29098;48.184;16.298;2023-06-10T10:43:39;99112.41;;;20.31;100.00
43503;BME280;29098;48.184;16.298;2023-06-10T10:46:15;99090.50;;;20.34;100.00
43503;BME280;29098;48.184;16.298;2023-06-10T10:48:42;99073.03;;;20.59;100.00
43503;BME280;29098;48.184;16.298;2023-06-10T10:51:08;99068.34;;;20.71;100.00
43503;BME280;29098;48.184;16.298;2023-06-10T10:53:34;99093.69;;;20.91;100.00
43503;BME280;29098;48.184;16.298;2023-06-10T10:56:12;99070.69;;;20.95;100.00
43503;BME280;29098;48.184;16.298;2023-06-10T10:58:38;99094.59;;;21.07;100.00
43503;BME280;29098;48.184;16.298;2023-06-10T11:01:14;99077.16;;;20.99;99.87
43503;BME280;29098;48.184;16.298;2023-06-10T11:03:46;99049.19;;;20.90;100.00
43503;BME280;29098;48.184;16.298;2023-06-10T11:06:15;99064.03;;;21.03;98.03
43503;BME280;29098;48.184;16.298;2023-06-10T11:11:48;99050.03;;;21.44;100.00
43503;BME280;29098;48.184;16.298;2023-06-10T11:14:26;99081.88;;;21.30;96.75
43503;BME280;29098;48.184;16.298;2023-06-10T11:16:56;99020.97;;;21.20;98.86
43503;BME280;29098;48.184;16.298;2023-06-10T11:19:33;99053.88;;;21.53;99.18
43503;BME280;29098;48.184;16.298;2023-06-10T11:22:05;99037.78;;;21.58;99.04
43503;BME280;29098;48.184;16.298;2023-06-10T11:24:31;99044.19;;;21.47;96.44
43503;BME280;29098;48.184;16.298;2023-06-10T11:27:16;99040.16;;;21.49;96.66
43503;BME280;29098;48.184;16.298;2023-06-10T11:32:33;99037.72;;;21.38;96.24
43503;BME280;29098;48.184;16.298;2023-06-10T11:34:59;99048.97;;;21.40;95.70
43503;BME280;29098;48.184;16.298;2023-06-10T11:37:25;99003.31;;;21.24;97.18
43503;BME280;29098;48.184;16.298;2023-06-10T11:39:54;99037.22;;;21.51;93.06
43503;BME280;29098;48.184;16.298;2023-06-10T11:42:21;99005.88;;;21.57;96.42
43503;BME280;29098;48.184;16.298;2023-06-10T11:44:53;99047.59;;;22.01;95.08
43503;BME280;29098;48.184;16.298;2023-06-10T11:47:19;99038.50;;;22.12;93.21
43503;BME280;29098;48.184;16.298;2023-06-10T11:49:46;99018.59;;;21.87;90.90
43503;BME280;29098;48.184;16.298;2023-06-10T11:52:26;99029.56;;;21.75;92.44
43503;BME280;29098;48.184;16.298;2023-06-10T11:54:54;99027.72;;;21.92;92.97
43503;BME280;29098;48.184;16.298;2023-06-10T11:57:20;99042.03;;;22.34;94.06
43503;BME280;29098;48.184;16.298;2023-06-10T11:59:46;99018.69;;;22.65;87.11
43503;BME280;29098;48.184;16.298;2023-06-10T12:02:17;99011.66;;;22.90;88.52
43503;BME280;29098;48.184;16.298;2023-06-10T12:04:44;99004.63;;;23.05;85.82
43503;BME280;29098;48.184;16.298;2023-06-10T12:07:17;99017.44;;;23.44;82.58
43503;BME280;29098;48.184;16.298;2023-06-10T12:09:42;98993.16;;;23.60;81.76
43503;BME280;29098;48.184;16.298;2023-06-10T12:12:08;98999.59;;;23.64;79.71
43503;BME280;29098;48.184;16.298;2023-06-10T12:15:08;98975.19;;;23.95;80.24
43503;BME280;29098;48.184;16.298;2023-06-10T12:20:06;99005.47;;;23.76;79.95
43503;BME280;29098;48.184;16.298;2023-06-10T12:22:42;98991.22;;;23.71;79.34
43503;BME280;29098;48.184;16.298;2023-06-10T12:25:09;98996.97;;;23.53;82.84
43503;BME280;29098;48.184;16.298;2023-06-10T12:27:36;98992.78;;;23.77;83.03
43503;BME280;29098;48.184;16.298;2023-06-10T12:30:03;98999.31;;;24.16;80.43
43503;BME280;29098;48.184;16.298;2023-06-10T12:35:04;98987.56;;;24.36;77.04
43503;BME280;29098;48.184;16.298;2023-06-10T12:37:30;98996.13;;;24.03;78.92
43503;BME280;29098;48.184;16.298;2023-06-10T12:40:00;99000.63;;;23.73;79.96
43503;BME280;29098;48.184;16.298;2023-06-10T12:42:25;98994.22;;;23.59;81.39
43503;BME280;29098;48.184;16.298;2023-06-10T12:44:53;98989.50;;;23.30;82.56
43503;BME280;29098;48.184;16.298;2023-06-10T12:47:19;98985.50;;;23.22;83.28
43503;BME280;29098;48.184;16.298;2023-06-10T12:49:45;98968.59;;;23.06;83.96
43503;BME280;29098;48.184;16.298;2023-06-10T12:52:11;98995.50;;;23.01;82.81
43503;BME280;29098;48.184;16.298;2023-06-10T12:54:37;98995.00;;;22.83;84.47
43503;BME280;29098;48.184;16.298;2023-06-10T12:57:03;98983.75;;;22.50;90.02